Time;durP1;ratioP1;P1;durP2;ratioP2;P2;SDS_P1;SDS_P2;PMS_P1;PMS_P2;Temp;Humidity;BMP_temperature;BMP_pressure;BME280_temperature;BME280_humidity;BME280_pressure;Samples;Min_cycle;Max_cycle;Signal;HPM_P1;HPM_P2
2022/04/10 00:03:58;;;;;;;0.98;0.93;;;6.40;99.90;;;;;;4983236;28;20041;-85
2022/04/10 00:06:29;;;;;;;1.10;0.80;;;6.40;99.90;;;;;;4972886;28;20414;-86
2022/04/10 00:09:47;;;;;;;3.40;1.00;;;6.50;99.90;;;;;;5005074;28;20032;-85
2022/04/10 00:12:47;;;;;;;1.23;0.90;;;6.40;99.90;;;;;;4951520;28;20082;-84
2022/04/10 00:15:22;;;;;;;1.38;0.98;;;6.30;99.90;;;;;;5000289;28;20124;-84
2022/04/10 00:18:17;;;;;;;1.85;0.80;;;6.20;99.90;;;;;;5009857;28;20500;-84
2022/04/10 00:21:10;;;;;;;1.60;0.93;;;6.00;99.90;;;;;;4989619;28;20049;-85
2022/04/10 00:23:46;;;;;;;1.25;1.10;;;5.90;99.90;;;;;;5005798;28;20054;-84
2022/04/10 00:27:01;;;;;;;1.80;1.10;;;5.80;99.90;;;;;;5005778;28;20070;-83
2022/04/10 00:29:34;;;;;;;1.63;1.00;;;5.70;99.90;;;;;;4995350;28;20493;-83
2022/04/10 00:32:06;;;;;;;1.88;1.00;;;5.60;99.90;;;;;;5006787;28;20029;-84
2022/04/10 00:34:58;;;;;;;1.10;1.10;;;5.60;99.90;;;;;;5011492;28;20025;-85
2022/04/10 00:37:58;;;;;;;1.88;1.05;;;5.50;99.90;;;;;;4910174;29;20032;-85
2022/04/10 00:40:48;;;;;;;1.42;1.15;;;5.50;99.90;;;;;;4927989;29;20024;-86
2022/04/10 00:54:15;;;;;;;1.85;1.60;;;5.40;99.90;;;;;;4971901;28;20067;-86
2022/04/10 00:57:29;;;;;;;1.60;1.50;;;5.30;99.90;;;;;;4971636;28;20039;-86
2022/04/10 01:04:07;;;;;;;2.78;2.05;;;5.30;99.90;;;;;;5045234;28;20068;-84
2022/04/10 01:10:15;;;;;;;2.42;1.70;;;5.40;99.90;;;;;;5050280;28;20044;-86
2022/04/10 01:13:02;;;;;;;1.75;1.60;;;5.50;99.90;;;;;;5038905;28;20122;-86
2022/04/10 01:15:42;;;;;;;1.50;1.40;;;5.50;99.90;;;;;;5027912;28;20029;-85
2022/04/10 01:18:31;;;;;;;1.75;1.48;;;5.50;99.90;;;;;;5043617;28;20469;-85
2022/04/10 01:21:09;;;;;;;3.35;1.75;;;5.40;99.90;;;;;;5052678;28;20554;-85
2022/04/10 01:24:39;;;;;;;1.88;1.77;;;5.40;99.90;;;;;;5047742;28;20029;-84
2022/04/10 01:31:18;;;;;;;2.92;1.67;;;5.50;99.90;;;;;;5025834;28;20036;-84
2022/04/10 01:33:44;;;;;;;3.05;2.08;;;5.50;99.90;;;;;;5013167;28;20037;-83
2022/04/10 02:10:23;;;;;;;3.40;1.92;;;5.40;99.90;;;;;;4826285;29;20027;-84
2022/04/10 05:00:54;;;;;;;4.60;2.22;;;3.80;99.90;;;;;;4776372;29;20611;-86
2022/04/10 05:03:36;;;;;;;3.15;2.30;;;3.80;99.90;;;;;;4812882;29;20063;-86
2022/04/10 05:06:54;;;;;;;4.05;2.30;;;3.70;99.90;;;;;;4836175;29;20109;-85
2022/04/10 05:22:30;;;;;;;2.67;2.25;;;4.00;99.90;;;;;;4942541;29;20098;-94
2022/04/10 05:28:34;;;;;;;11.18;5.57;;;4.20;99.90;;;;;;4918983;29;20055;-84
2022/04/10 05:31:31;;;;;;;3.75;2.85;;;4.30;99.90;;;;;;4934778;28;20427;-85
2022/04/10 05:43:56;;;;;;;2.35;2.13;;;4.80;99.90;;;;;;4901214;28;20448;-88
2022/04/10 05:46:45;;;;;;;3.72;2.90;;;4.90;99.90;;;;;;4962555;28;20073;-85
2022/04/10 05:49:25;;;;;;;3.65;2.50;;;5.00;99.90;;;;;;4968723;28;20077;-85
2022/04/10 05:52:15;;;;;;;3.20;2.40;;;5.10;99.90;;;;;;5029907;28;20041;-85
2022/04/10 05:58:11;;;;;;;4.40;1.70;;;5.30;99.90;;;;;;5032716;28;20041;-86
2022/04/10 06:00:46;;;;;;;6.40;2.40;;;5.40;99.90;;;;;;5037207;28;20033;-86
2022/04/10 06:03:14;;;;;;;2.55;2.00;;;5.50;99.90;;;;;;5041909;28;20058;-85
2022/04/10 06:05:43;;;;;;;2.88;2.00;;;5.60;99.90;;;;;;5036588;28;20041;-86
2022/04/10 06:08:24;;;;;;;;;;;;;;;;;;;;;
2022/04/10 06:10:51;;;;;;;3.83;2.10;;;5.80;99.90;;;;;;5039545;28;20233;-85
2022/04/10 06:13:29;;;;;;;2.60;1.85;;;5.90;99.90;;;;;;5043008;28;20124;-86
2022/04/10 06:15:58;;;;;;;2.92;2.17;;;6.00;99.90;;;;;;5024793;28;20039;-86
2022/04/10 06:18:29;;;;;;;2.22;1.75;;;6.10;99.90;;;;;;5041787;28;20032;-86
2022/04/10 06:20:58;;;;;;;2.75;1.98;;;6.20;99.90;;;;;;5043913;28;20029;-87
2022/04/10 06:23:31;;;;;;;4.70;1.98;;;6.30;99.90;;;;;;5057021;28;20094;-89
2022/04/10 06:26:03;;;;;;;2.60;1.60;;;6.40;99.90;;;;;;5044242;28;20109;-84
2022/04/10 06:28:32;;;;;;;2.92;1.92;;;6.40;99.90;;;;;;5041234;28;20037;-84
2022/04/10 06:31:16;;;;;;;5.00;2.05;;;6.60;99.90;;;;;;5036168;28;20033;-83
2022/04/10 06:34:02;;;;;;;3.03;1.92;;;6.60;99.90;;;;;;5044472;28;20025;-87
2022/04/10 06:36:41;;;;;;;;;;;;;;;;;;;;;
2022/04/10 06:39:21;;;;;;;5.07;3.65;;;6.80;99.90;;;;;;5030546;28;20025;-83
2022/04/10 06:41:50;;;;;;;7.03;3.53;;;7.00;99.90;;;;;;5037700;28;20021;-85
2022/04/10 06:44:16;;;;;;;3.95;2.88;;;7.10;99.90;;;;;;5046811;28;20029;-85
2022/04/10 06:46:42;;;;;;;4.90;3.50;;;7.10;99.90;;;;;;5041435;28;20091;-85
2022/04/10 06:49:13;;;;;;;5.88;3.67;;;7.20;99.90;;;;;;5035712;28;20087;-85
2022/04/10 06:51:43;;;;;;;4.85;3.83;;;7.30;99.90;;;;;;5038413;28;20032;-85
2022/04/10 06:54:09;;;;;;;6.55;3.88;;;7.30;99.90;;;;;;5045050;28;20056;-84
2022/04/10 06:56:44;;;;;;;5.88;3.22;;;7.40;99.90;;;;;;5043664;28;20471;-84
2022/04/10 06:59:10;;;;;;;6.18;3.78;;;7.40;99.90;;;;;;5045888;28;20091;-84
2022/04/10 07:01:39;;;;;;;13.93;4.25;;;7.50;99.90;;;;;;5022529;28;20036;-85
2022/04/10 07:04:21;;;;;;;;;;;;;;;;;;;;;
2022/04/10 07:06:55;;;;;;;4.07;3.30;;;7.50;99.90;;;;;;5038042;28;20047;-84
2022/04/10 07:09:26;;;;;;;3.88;2.90;;;7.50;99.90;;;;;;5043434;28;20112;-84
2022/04/10 07:11:52;;;;;;;3.30;2.92;;;7.60;99.90;;;;;;5042029;28;20497;-84
2022/04/10 07:14:18;;;;;;;4.43;3.65;;;7.70;99.90;;;;;;5033436;28;20025;-85
2022/04/10 07:16:47;;;;;;;5.70;3.00;;;7.90;99.90;;;;;;5023416;28;20026;-84
2022/04/10 07:19:15;;;;;;;4.57;3.92;;;7.90;99.90;;;;;;5036095;28;20025;-84
2022/04/10 07:27:29;;;;;;;7.63;3.33;;;8.30;99.90;;;;;;5037535;28;20040;-84
2022/04/10 07:29:55;;;;;;;5.30;3.83;;;8.50;99.90;;;;;;5032265;28;20033;-85
2022/04/10 07:32:29;;;;;;;4.95;3.08;;;8.60;99.90;;;;;;5040289;28;20411;-84
2022/04/10 07:34:55;;;;;;;5.00;2.83;;;8.50;99.90;;;;;;5018083;28;20026;-85
2022/04/10 07:37:24;;;;;;;4.65;2.85;;;8.50;99.90;;;;;;5037942;28;20118;-86
2022/04/10 07:40:07;;;;;;;3.92;2.80;;;8.60;99.90;;;;;;5031759;28;20029;-88
2022/04/10 07:42:38;;;;;;;3.05;2.10;;;8.60;99.90;;;;;;5039494;28;20033;-84
2022/04/10 07:45:05;;;;;;;4.10;2.60;;;8.70;99.90;;;;;;5047595;28;20029;-86
2022/04/10 07:47:31;;;;;;;2.60;2.15;;;8.80;99.90;;;;;;5037005;28;20088;-86
2022/04/10 07:49:57;;;;;;;3.13;2.38;;;8.80;99.90;;;;;;5048026;28;20029;-84
2022/04/10 07:52:26;;;;;;;6.22;2.40;;;8.80;99.90;;;;;;5043141;28;20033;-83
2022/04/10 07:54:58;;;;;;;3.25;2.17;;;8.70;99.90;;;;;;5016560;28;20097;-82
2022/04/10 07:57:29;;;;;;;7.13;1.70;;;8.70;99.90;;;;;;5033448;28;20101;-82
2022/04/10 07:59:54;;;;;;;4.28;2.13;;;8.70;99.90;;;;;;5017757;28;20276;-85
2022/04/10 08:02:20;;;;;;;7.03;2.55;;;8.80;99.90;;;;;;5042965;28;20048;-83
2022/04/10 08:04:49;;;;;;;5.38;2.83;;;8.80;99.90;;;;;;5015355;28;20395;-81
2022/04/10 08:07:15;;;;;;;3.97;2.70;;;8.90;99.90;;;;;;5042642;28;20048;-83
2022/04/10 08:10:04;;;;;;;4.03;1.90;;;8.90;99.90;;;;;;5051260;28;20021;-84
2022/04/10 08:12:27;;;;;;;2.92;1.90;;;8.90;99.90;;;;;;5041915;28;20041;-84
2022/04/10 08:14:53;;;;;;;4.10;2.88;;;9.00;99.90;;;;;;5036352;28;20037;-84
2022/04/10 08:17:19;;;;;;;3.08;2.35;;;9.00;99.90;;;;;;5045539;28;20102;-84
2022/04/10 08:19:48;;;;;;;4.03;3.20;;;9.10;99.90;;;;;;5034890;28;20037;-83
2022/04/10 08:22:14;;;;;;;5.45;4.07;;;9.20;99.90;;;;;;5045161;28;20025;-84
2022/04/10 08:24:40;;;;;;;4.82;2.88;;;9.20;99.90;;;;;;5034353;28;20423;-80
2022/04/10 08:27:06;;;;;;;2.92;2.72;;;9.20;99.90;;;;;;5039961;28;20038;-80
2022/04/10 08:29:33;;;;;;;3.13;2.83;;;9.30;99.90;;;;;;5034265;28;20039;-81
2022/04/10 08:31:59;;;;;;;1.65;1.55;;;9.30;99.90;;;;;;5045364;28;20087;-82
2022/04/10 08:34:37;;;;;;;3.78;1.35;;;9.30;99.90;;;;;;5019190;28;20469;-82
2022/04/10 08:37:05;;;;;;;3.30;1.95;;;9.30;99.90;;;;;;5038720;28;20108;-82
2022/04/10 08:39:40;;;;;;;5.25;2.20;;;9.30;99.90;;;;;;5030720;28;20742;-82
2022/04/10 08:42:08;;;;;;;4.78;2.80;;;9.50;99.90;;;;;;5032731;28;20021;-82
2022/04/10 08:44:39;;;;;;;3.00;1.90;;;9.70;99.90;;;;;;5050149;28;20013;-81
2022/04/10 08:47:08;;;;;;;2.65;1.75;;;9.70;99.90;;;;;;5043859;28;20040;-82
2022/04/10 08:49:39;;;;;;;3.92;1.30;;;9.70;99.90;;;;;;5035661;28;20071;-81
2022/04/10 08:52:05;;;;;;;4.47;1.35;;;9.80;99.90;;;;;;5036662;28;20079;-82
2022/04/10 08:54:34;;;;;;;2.58;1.45;;;9.70;99.90;;;;;;5048816;28;20479;-81
2022/04/10 08:57:01;;;;;;;3.22;1.33;;;9.70;99.90;;;;;;5044125;28;20463;-83
2022/04/10 08:59:27;;;;;;;3.22;1.48;;;9.60;99.90;;;;;;5035969;28;20049;-82
2022/04/10 09:01:54;;;;;;;8.93;1.20;;;9.60;99.90;;;;;;5008280;28;20534;-81
2022/04/10 09:04:23;;;;;;;2.65;1.20;;;9.60;99.90;;;;;;5017391;28;20038;-84
2022/04/10 09:07:08;;;;;;;1.38;1.17;;;9.50;99.90;;;;;;5023304;28;20493;-82
2022/04/10 09:09:39;;;;;;;2.13;1.10;;;9.80;99.90;;;;;;5010115;28;20029;-82
2022/04/10 09:12:05;;;;;;;3.17;1.00;;;9.70;99.90;;;;;;5016469;28;20037;-83
2022/04/10 09:14:44;;;;;;;3.58;1.50;;;9.70;99.90;;;;;;5029740;28;20128;-82
2022/04/10 09:17:22;;;;;;;2.40;1.00;;;9.80;99.90;;;;;;5024412;28;20075;-81
2022/04/10 09:19:51;;;;;;;2.67;1.60;;;9.70;99.90;;;;;;5014946;28;20017;-81
2022/04/10 09:22:30;;;;;;;2.45;1.13;;;9.70;99.90;;;;;;5024781;28;20051;-81
2022/04/10 09:25:14;;;;;;;2.35;1.50;;;9.80;99.90;;;;;;5000164;28;20076;-83
2022/04/10 09:27:49;;;;;;;2.90;1.10;;;9.70;99.90;;;;;;5025017;28;20045;-83
2022/04/10 09:30:17;;;;;;;1.40;1.10;;;9.70;99.90;;;;;;5016258;28;20030;-83
2022/04/10 09:32:53;;;;;;;2.08;1.50;;;9.90;99.90;;;;;;5025126;28;20040;-83
2022/04/10 09:35:21;;;;;;;1.38;1.20;;;10.00;99.90;;;;;;5015383;28;20028;-84
2022/04/10 09:37:55;;;;;;;1.85;1.42;;;10.00;99.90;;;;;;5011858;28;20084;-83
2022/04/10 09:40:31;;;;;;;1.63;1.50;;;10.00;99.90;;;;;;5014370;28;20049;-83
2022/04/10 09:43:24;;;;;;;4.43;1.58;;;10.00;99.90;;;;;;5023145;28;20037;-84
2022/04/10 09:45:56;;;;;;;2.20;1.77;;;10.00;99.90;;;;;;5016836;28;20658;-84
2022/04/10 09:48:22;;;;;;;1.67;1.38;;;10.00;99.90;;;;;;5018956;28;20026;-83
2022/04/10 09:51:10;;;;;;;3.60;1.70;;;9.90;99.90;;;;;;5020749;28;20036;-83
2022/04/10 09:53:36;;;;;;;2.17;1.52;;;10.00;99.90;;;;;;5021314;28;20021;-84
2022/04/10 09:56:07;;;;;;;4.57;2.55;;;10.10;99.90;;;;;;5023706;28;20029;-83
2022/04/10 09:58:39;;;;;;;7.15;2.88;;;10.20;99.90;;;;;;5019928;28;20028;-84
2022/04/10 10:01:07;;;;;;;6.13;1.98;;;10.30;99.90;;;;;;5017852;28;20030;-83
2022/04/10 10:03:36;;;;;;;4.45;2.00;;;10.40;99.90;;;;;;5037458;28;20052;-83
2022/04/10 10:06:03;;;;;;;2.33;1.50;;;10.40;99.90;;;;;;5039879;28;20027;-84
2022/04/10 10:08:47;;;;;;;4.72;1.80;;;10.40;99.90;;;;;;5060552;28;20029;-84
2022/04/10 10:11:25;;;;;;;9.63;1.40;;;10.40;99.90;;;;;;5042957;28;20123;-83
2022/04/10 10:13:55;;;;;;;3.80;1.40;;;10.40;99.90;;;;;;5037966;28;20025;-83
2022/04/10 10:16:29;;;;;;;2.33;1.50;;;10.40;99.90;;;;;;5039387;28;20120;-84
2022/04/10 10:18:59;;;;;;;1.40;1.23;;;10.40;99.90;;;;;;5039108;28;20127;-84
2022/04/10 10:21:29;;;;;;;2.33;1.30;;;10.40;99.90;;;;;;5039643;28;20028;-84
2022/04/10 10:24:01;;;;;;;2.28;1.10;;;10.50;99.90;;;;;;5054260;28;20435;-86
2022/04/10 10:26:46;;;;;;;2.55;1.23;;;10.60;99.90;;;;;;5040129;28;20072;-87
2022/04/10 10:29:35;;;;;;;2.63;1.33;;;10.80;99.90;;;;;;5024695;28;20484;-85
2022/04/10 10:32:13;;;;;;;7.13;1.35;;;10.70;99.90;;;;;;5038343;28;20124;-83
2022/04/10 10:34:42;;;;;;;4.78;1.83;;;10.90;99.90;;;;;;5049918;28;20031;-85
2022/04/10 10:37:12;;;;;;;2.65;1.40;;;10.90;99.90;;;;;;5006344;28;20021;-89
2022/04/10 10:40:06;;;;;;;2.40;1.45;;;10.90;99.90;;;;;;5031963;28;20092;-86
2022/04/10 10:42:41;;;;;;;5.35;1.95;;;10.90;99.90;;;;;;5046255;28;20037;-84
2022/04/10 10:45:08;;;;;;;5.70;1.13;;;11.00;99.90;;;;;;5052795;28;20021;-85
2022/04/10 10:47:34;;;;;;;1.77;1.15;;;11.10;99.90;;;;;;5037033;28;20038;-82
2022/04/10 10:50:27;;;;;;;3.30;1.33;;;11.30;99.90;;;;;;5054280;28;20048;-89
2022/04/10 10:53:23;;;;;;;1.55;1.00;;;11.50;99.90;;;;;;5045778;28;20029;-87
2022/04/10 10:55:51;;;;;;;1.48;0.90;;;11.30;99.90;;;;;;5039023;28;20373;-86
2022/04/10 10:58:40;;;;;;;1.50;0.80;;;11.20;99.90;;;;;;5050411;28;20028;-86
2022/04/10 11:01:08;;;;;;;2.63;1.30;;;11.20;99.90;;;;;;5015294;28;20038;-87
2022/04/10 11:04:01;;;;;;;3.97;1.05;;;11.20;99.90;;;;;;5018915;28;20682;-84
2022/04/10 11:06:38;;;;;;;1.63;1.10;;;11.20;99.90;;;;;;5049722;28;20052;-86
2022/04/10 11:09:28;;;;;;;1.67;1.13;;;11.10;99.90;;;;;;5046779;28;20121;-86
2022/04/10 11:11:57;;;;;;;2.90;1.20;;;11.20;99.90;;;;;;5046119;28;20029;-85
2022/04/10 11:14:38;;;;;;;3.72;1.40;;;11.40;99.90;;;;;;5035268;28;20033;-86
2022/04/10 11:17:32;;;;;;;3.03;1.30;;;11.60;99.90;;;;;;5021155;28;20458;-86
2022/04/10 11:20:02;;;;;;;4.05;1.55;;;11.40;99.90;;;;;;5001109;28;20026;-86
2022/04/10 11:22:47;;;;;;;2.55;1.10;;;11.40;99.90;;;;;;5037008;28;20033;-89
2022/04/10 11:25:31;;;;;;;3.45;1.42;;;11.50;99.90;;;;;;5049266;28;20020;-91
2022/04/10 11:28:11;;;;;;;2.47;1.33;;;11.40;99.90;;;;;;5043008;28;20496;-86
2022/04/10 11:30:48;;;;;;;2.22;1.20;;;11.30;99.90;;;;;;5033725;28;20029;-85
2022/04/10 11:33:15;;;;;;;3.47;1.20;;;11.40;99.90;;;;;;5042196;28;20025;-84
2022/04/10 11:35:42;;;;;;;2.95;1.40;;;11.40;99.90;;;;;;5035960;28;20131;-85
2022/04/10 11:38:23;;;;;;;3.97;1.20;;;11.40;99.90;;;;;;5028690;28;20101;-86
2022/04/10 11:40:51;;;;;;;4.28;1.10;;;11.30;99.90;;;;;;5038177;28;20387;-85
2022/04/10 11:43:19;;;;;;;1.27;0.77;;;11.30;99.90;;;;;;5046245;28;20092;-85
2022/04/10 11:45:48;;;;;;;1.42;1.00;;;11.30;99.90;;;;;;5048605;28;20045;-85
2022/04/10 11:48:14;;;;;;;2.60;1.00;;;11.30;99.90;;;;;;5018214;28;20381;-85
2022/04/10 11:50:40;;;;;;;3.38;1.20;;;11.30;99.90;;;;;;5040215;28;20029;-85
2022/04/10 11:53:23;;;;;;;5.95;1.20;;;11.30;99.90;;;;;;5044530;28;20029;-86
2022/04/10 11:55:49;;;;;;;;;;;11.30;99.90;;;;;;5032848;28;20034;-86
2022/04/10 11:58:25;;;;;;;1.90;1.00;;;11.20;99.90;;;;;;5060070;28;19904;-90
2022/04/10 12:01:00;;;;;;;1.35;0.90;;;11.30;99.90;;;;;;5046261;28;20059;-85
2022/04/10 12:03:29;;;;;;;2.40;0.82;;;11.30;99.90;;;;;;5047339;28;20040;-84
2022/04/10 12:06:00;;;;;;;1.40;0.90;;;11.40;99.90;;;;;;5049770;28;20029;-87
2022/04/10 12:08:26;;;;;;;3.50;1.25;;;11.80;99.90;;;;;;5031943;28;20043;-86
2022/04/10 12:11:03;;;;;;;1.83;0.93;;;12.50;99.90;;;;;;5046151;28;20521;-89
2022/04/10 12:13:37;;;;;;;0.77;0.70;;;15.40;99.90;;;;;;5043329;28;20080;-90
2022/04/10 12:16:18;;;;;;;1.02;0.50;;;18.10;99.90;;;;;;5043125;28;20029;-88
2022/04/10 12:18:56;;;;;;;1.13;0.63;;;18.90;99.90;;;;;;5046653;28;20029;-85
2022/04/10 12:21:23;;;;;;;0.98;0.88;;;18.90;99.90;;;;;;5046351;28;20034;-86
2022/04/10 12:24:03;;;;;;;1.63;0.80;;;19.10;96.70;;;;;;5037878;28;20021;-91
2022/04/10 12:26:39;;;;;;;1.30;0.75;;;19.70;95.00;;;;;;5029603;28;20141;-92
2022/04/10 12:29:18;;;;;;;2.92;0.98;;;20.60;92.40;;;;;;5045317;28;20035;-88
2022/04/10 12:31:58;;;;;;;1.90;0.82;;;20.80;84.60;;;;;;5044862;28;20032;-89
2022/04/10 12:34:47;;;;;;;1.15;0.73;;;19.90;89.40;;;;;;5039938;28;20136;-88
2022/04/10 12:37:17;;;;;;;0.70;0.70;;;19.20;88.50;;;;;;5039076;28;20029;-88
2022/04/10 12:39:47;;;;;;;3.22;0.80;;;19.20;90.80;;;;;;5039576;28;20427;-88
2022/04/10 12:42:20;;;;;;;3.22;1.73;;;20.60;89.90;;;;;;5051989;28;20032;-87
2022/04/10 12:45:03;;;;;;;4.07;1.38;;;21.60;86.90;;;;;;5055029;28;20022;-87
2022/04/10 12:47:49;;;;;;;;;;;22.70;80.80;;;;;;5042446;28;20124;-91
2022/04/10 12:50:19;;;;;;;1.42;0.55;;;22.00;78.90;;;;;;5051858;28;19962;-86
2022/04/10 12:52:46;;;;;;;0.63;0.50;;;21.70;75.90;;;;;;5024501;28;20075;-85
2022/04/10 12:55:27;;;;;;;2.67;0.80;;;22.70;76.20;;;;;;5048179;28;20043;-84
2022/04/10 12:58:01;;;;;;;2.13;1.00;;;23.10;73.40;;;;;;5045778;28;20365;-84
2022/04/10 13:00:47;;;;;;;1.67;0.80;;;23.50;70.50;;;;;;5036174;28;20480;-84
2022/04/10 13:03:18;;;;;;;4.55;1.10;;;23.10;68.60;;;;;;5041571;28;20049;-83
2022/04/10 13:06:03;;;;;;;1.08;0.65;;;23.70;66.20;;;;;;5046397;28;20491;-85
2022/04/10 13:08:35;;;;;;;6.05;1.00;;;24.60;60.10;;;;;;5025248;28;20171;-84
2022/04/10 13:11:10;;;;;;;3.50;0.70;;;24.70;65.10;;;;;;5010252;28;20036;-83
2022/04/10 13:14:10;;;;;;;1.73;0.93;;;26.30;59.70;;;;;;5043693;28;20035;-80
2022/04/10 13:16:38;;;;;;;1.33;0.80;;;25.60;52.90;;;;;;5043375;28;20124;-83
2022/04/10 13:19:06;;;;;;;0.70;0.68;;;25.10;57.00;;;;;;5039318;28;20022;-83
2022/04/10 13:21:36;;;;;;;2.38;0.80;;;24.60;56.90;;;;;;5042695;28;20035;-83
2022/04/10 13:24:07;;;;;;;1.52;0.80;;;24.20;56.70;;;;;;5039220;28;20025;-84
2022/04/10 13:26:41;;;;;;;1.55;0.95;;;23.60;58.30;;;;;;5039283;28;20496;-84
2022/04/10 13:29:09;;;;;;;1.55;0.93;;;22.40;59.10;;;;;;5046896;28;20025;-83
2022/04/10 13:31:36;;;;;;;3.22;1.35;;;21.80;59.90;;;;;;5046094;28;20029;-83
2022/04/10 13:34:04;;;;;;;2.22;1.10;;;21.50;62.70;;;;;;5039360;28;20387;-84
2022/04/10 13:36:31;;;;;;;5.88;1.33;;;21.50;65.00;;;;;;5040716;28;20029;-84
2022/04/10 13:38:58;;;;;;;2.20;1.25;;;22.00;65.40;;;;;;5032106;28;20026;-83
2022/04/10 13:41:51;;;;;;;1.80;1.17;;;23.30;66.10;;;;;;5047606;28;20029;-84
2022/04/10 13:44:23;;;;;;;1.70;0.90;;;23.30;63.00;;;;;;5027275;28;20021;-85
2022/04/10 13:46:49;;;;;;;2.22;1.00;;;23.10;63.40;;;;;;5043176;28;20038;-86
2022/04/10 13:49:18;;;;;;;1.20;1.00;;;22.70;61.60;;;;;;5040386;28;20033;-85
2022/04/10 13:51:51;;;;;;;3.60;1.10;;;21.70;64.30;;;;;;5042397;28;20025;-84
2022/04/10 13:54:27;;;;;;;;;;;;;;;;;;;;;
2022/04/10 13:56:53;;;;;;;1.75;0.90;;;22.90;66.50;;;;;;5047551;28;20025;-88
2022/04/10 13:59:19;;;;;;;1.50;0.70;;;24.50;57.50;;;;;;5050989;28;20434;-86
2022/04/10 14:01:45;;;;;;;1.45;0.80;;;23.20;58.50;;;;;;5033076;28;20508;-90
2022/04/10 14:04:30;;;;;;;2.25;1.10;;;21.80;62.20;;;;;;5033320;28;20038;-86
2022/04/10 14:06:57;;;;;;;3.60;0.90;;;22.10;63.80;;;;;;5041744;28;20124;-86
2022/04/10 14:09:34;;;;;;;2.85;0.60;;;21.50;62.90;;;;;;5051475;28;20031;-90
2022/04/10 14:12:05;;;;;;;1.83;1.00;;;21.00;64.20;;;;;;5036035;28;20041;-84
2022/04/10 14:14:33;;;;;;;1.52;0.85;;;21.20;65.40;;;;;;5042073;28;20021;-83
2022/04/10 14:17:02;;;;;;;1.17;0.80;;;21.00;62.80;;;;;;5047133;28;20036;-84
2022/04/10 14:19:34;;;;;;;2.33;0.82;;;21.30;63.60;;;;;;5053106;28;20017;-83
2022/04/10 14:22:00;;;;;;;1.38;1.00;;;21.20;63.80;;;;;;5046578;28;20037;-85
2022/04/10 14:24:46;;;;;;;1.80;1.00;;;22.10;62.80;;;;;;5042717;28;20098;-84
2022/04/10 14:27:14;;;;;;;2.17;1.10;;;22.80;63.70;;;;;;5039222;28;20036;-89
2022/04/10 14:29:41;;;;;;;2.95;1.50;;;24.30;58.60;;;;;;5022737;28;20038;-89
2022/04/10 14:32:08;;;;;;;2.63;1.23;;;24.90;57.40;;;;;;5033842;28;20033;-85
2022/04/10 14:34:39;;;;;;;1.90;1.30;;;24.10;59.50;;;;;;5043078;28;20036;-88
2022/04/10 14:37:06;;;;;;;1.45;1.30;;;23.40;63.00;;;;;;5026867;28;20021;-90
2022/04/10 14:39:37;;;;;;;1.10;1.00;;;23.80;61.10;;;;;;5052630;28;20120;-80
2022/04/10 14:42:04;;;;;;;2.38;0.90;;;23.40;58.90;;;;;;5048080;28;20480;-87
2022/04/10 14:44:29;;;;;;;1.73;0.90;;;22.10;63.40;;;;;;5041722;28;20022;-87
2022/04/10 14:46:57;;;;;;;1.75;1.05;;;20.70;66.60;;;;;;5039550;28;20455;-84
2022/04/10 14:49:23;;;;;;;1.75;0.90;;;19.80;68.00;;;;;;5017710;28;20032;-85
2022/04/10 14:51:49;;;;;;;1.85;0.80;;;19.50;67.70;;;;;;5037177;28;20108;-85
2022/04/10 14:54:15;;;;;;;2.97;0.90;;;19.60;68.80;;;;;;5040851;28;20029;-88
2022/04/10 14:56:48;;;;;;;2.42;1.10;;;20.00;67.10;;;;;;5046750;28;20025;-88
2022/04/10 14:59:14;;;;;;;2.33;1.10;;;20.70;65.90;;;;;;5046225;28;20021;-89
2022/04/10 15:01:41;;;;;;;2.47;0.73;;;20.90;67.50;;;;;;5032022;28;20044;-90
2022/04/10 15:04:09;;;;;;;2.42;1.30;;;21.30;67.40;;;;;;5042107;28;20033;-88
2022/04/10 15:06:38;;;;;;;1.20;1.00;;;22.30;65.20;;;;;;5030474;28;20515;-89
2022/04/10 15:09:09;;;;;;;1.38;1.02;;;22.40;63.20;;;;;;5039333;28;20061;-87
2022/04/10 15:11:35;;;;;;;1.55;0.80;;;21.30;66.30;;;;;;5028398;28;20034;-86
2022/04/10 15:14:01;;;;;;;2.70;1.10;;;20.70;65.80;;;;;;5066186;28;20369;-87
2022/04/10 15:16:28;;;;;;;2.03;1.40;;;20.70;66.20;;;;;;5043294;28;20029;-88
2022/04/10 15:18:54;;;;;;;2.95;1.23;;;21.00;66.20;;;;;;5029412;28;20026;-87
2022/04/10 15:21:23;;;;;;;4.35;1.00;;;21.50;67.40;;;;;;5030419;28;20040;-90
2022/04/10 15:23:51;;;;;;;1.08;0.68;;;21.50;67.60;;;;;;5031933;28;20029;-88
2022/04/10 15:26:17;;;;;;;1.75;0.80;;;20.90;67.70;;;;;;5054383;28;20047;-89
2022/04/10 15:28:46;;;;;;;1.98;0.77;;;20.40;67.50;;;;;;5043619;28;20026;-86
2022/04/10 15:31:14;;;;;;;6.05;1.05;;;20.20;67.00;;;;;;5042618;28;20033;-88
2022/04/10 15:33:40;;;;;;;2.42;1.10;;;20.20;68.80;;;;;;5047571;28;20510;-84
2022/04/10 15:36:06;;;;;;;3.28;0.90;;;20.10;68.40;;;;;;5047400;28;20029;-86
2022/04/10 15:38:32;;;;;;;4.13;0.85;;;19.50;70.40;;;;;;5049069;28;20036;-83
2022/04/10 15:41:00;;;;;;;1.25;0.70;;;19.80;70.70;;;;;;5050247;28;20025;-86
2022/04/10 15:43:32;;;;;;;4.13;0.80;;;20.20;65.90;;;;;;5061504;28;20051;-87
2022/04/10 15:45:58;;;;;;;2.38;1.00;;;19.90;68.60;;;;;;5063157;28;20025;-87
2022/04/10 15:48:24;;;;;;;6.57;2.05;;;20.60;68.30;;;;;;5041270;28;20079;-86
2022/04/10 15:50:50;;;;;;;1.90;0.93;;;20.20;69.90;;;;;;5044063;28;20155;-87
2022/04/10 15:53:16;;;;;;;4.88;1.42;;;19.90;72.10;;;;;;5050609;28;20079;-86
2022/04/10 15:55:42;;;;;;;2.15;0.90;;;20.00;71.80;;;;;;5047419;28;20438;-83
2022/04/10 15:58:09;;;;;;;1.90;0.88;;;19.70;70.10;;;;;;5053810;28;20029;-82
2022/04/10 16:00:40;;;;;;;1.48;0.88;;;19.60;70.00;;;;;;5057088;28;20115;-86
2022/04/10 16:03:08;;;;;;;2.83;0.90;;;19.30;66.60;;;;;;5009573;28;20453;-87
2022/04/10 16:06:08;;;;;;;1.17;0.80;;;19.30;67.80;;;;;;5015035;28;20013;-89
2022/04/10 16:08:38;;;;;;;1.50;0.80;;;19.50;67.40;;;;;;5013262;28;20014;-87
2022/04/10 16:11:04;;;;;;;1.50;0.55;;;19.70;65.70;;;;;;5011727;28;20041;-84
2022/04/10 16:13:32;;;;;;;2.85;0.73;;;19.80;65.70;;;;;;5024014;28;20055;-86
2022/04/10 16:16:01;;;;;;;2.75;1.00;;;20.00;63.80;;;;;;5030607;28;20030;-84
2022/04/10 16:18:27;;;;;;;1.90;0.80;;;20.30;66.60;;;;;;5017268;28;20026;-86
2022/04/10 16:21:00;;;;;;;2.58;0.82;;;20.80;64.80;;;;;;5024864;28;20084;-90
2022/04/10 16:23:33;;;;;;;3.20;1.05;;;20.40;66.00;;;;;;5009973;28;20019;-88
2022/04/10 16:25:59;;;;;;;5.05;1.08;;;20.00;66.30;;;;;;4993825;28;20436;-85
2022/04/10 16:31:09;;;;;;;3.00;0.73;;;19.00;70.20;;;;;;5027502;28;20084;-90
2022/04/10 16:34:17;;;;;;;2.70;0.93;;;18.50;70.40;;;;;;5027584;28;20030;-89
2022/04/10 16:36:21;;;;;;;1.33;0.88;;;18.10;70.50;;;;;;5022551;28;20030;-88
2022/04/10 16:38:47;;;;;;;2.08;1.10;;;18.10;72.90;;;;;;5005201;28;20433;-87
2022/04/10 16:41:16;;;;;;;1.90;0.80;;;17.80;69.50;;;;;;4995584;28;20030;-89
2022/04/10 16:43:42;;;;;;;4.85;1.20;;;17.80;69.10;;;;;;5012877;28;20033;-86
2022/04/10 16:46:14;;;;;;;1.05;0.52;;;17.20;68.70;;;;;;5047113;28;20034;-87
2022/04/10 16:49:09;;;;;;;2.00;0.90;;;16.70;70.10;;;;;;5048363;28;20468;-88
2022/04/10 16:51:38;;;;;;;0.98;0.60;;;15.50;71.10;;;;;;5033080;28;20014;-87
2022/04/10 16:56:54;;;;;;;4.80;1.20;;;14.50;75.30;;;;;;5023254;28;20052;-90
2022/04/10 16:59:44;;;;;;;1.95;1.20;;;14.40;77.00;;;;;;5034050;28;20018;-88
2022/04/10 17:02:13;;;;;;;1.45;0.90;;;14.00;76.90;;;;;;5038011;28;20048;-89
2022/04/10 17:04:55;;;;;;;1.20;0.60;;;13.70;78.30;;;;;;5050740;28;20175;-90
2022/04/10 17:07:39;;;;;;;1.55;1.20;;;13.30;79.40;;;;;;5047903;28;20108;-91
2022/04/10 17:10:11;;;;;;;2.08;0.85;;;12.90;80.70;;;;;;5051637;28;20022;-87
2022/04/10 17:12:44;;;;;;;1.50;0.60;;;12.70;80.90;;;;;;5053534;28;20044;-89
2022/04/10 17:15:11;;;;;;;2.65;0.90;;;12.30;82.70;;;;;;5047535;28;20032;-89
2022/04/10 17:17:37;;;;;;;2.17;1.40;;;12.10;84.70;;;;;;5049757;28;20018;-88
2022/04/10 17:20:13;;;;;;;2.13;1.02;;;12.00;86.00;;;;;;5050643;28;20132;-89
2022/04/10 17:22:44;;;;;;;3.88;1.10;;;11.80;88.00;;;;;;5041023;28;20033;-88
2022/04/10 17:25:16;;;;;;;3.20;1.33;;;11.70;88.30;;;;;;5041799;28;20064;-89
2022/04/10 17:27:56;;;;;;;2.90;0.90;;;11.50;89.40;;;;;;5057340;28;20026;-89
2022/04/10 17:43:48;;;;;;;4.03;1.50;;;11.10;93.40;;;;;;5162463;23;20034;-87
2022/04/10 17:46:20;;;;;;;1.52;0.90;;;11.00;94.00;;;;;;5013131;28;20042;-86
2022/04/10 17:48:47;;;;;;;1.02;0.90;;;11.00;94.70;;;;;;5026176;28;20025;-89
2022/04/10 17:51:17;;;;;;;1.52;0.80;;;11.00;95.50;;;;;;5026695;28;20105;-89
2022/04/10 17:54:01;;;;;;;0.82;0.73;;;10.90;96.10;;;;;;5020516;28;20048;-88
2022/04/10 17:56:26;;;;;;;1.95;0.75;;;10.90;97.10;;;;;;5008532;28;20093;-89
2022/04/10 17:59:03;;;;;;;1.27;0.68;;;10.90;97.70;;;;;;5032117;28;20489;-90
2022/04/10 18:01:50;;;;;;;2.03;1.00;;;10.80;99.10;;;;;;5040798;28;20038;-88
2022/04/10 18:04:31;;;;;;;1.75;0.90;;;10.80;99.90;;;;;;5044379;28;20033;-88
2022/04/10 18:06:57;;;;;;;1.48;0.80;;;10.80;99.90;;;;;;5024908;28;20067;-88
2022/04/10 18:09:34;;;;;;;1.27;0.77;;;10.80;99.90;;;;;;5015117;28;20038;-89
2022/04/10 18:12:02;;;;;;;1.20;0.70;;;10.70;99.90;;;;;;5015211;28;20040;-89